Flight Track Log - Related Links

Times and Time Zones

All times are in EDT time to prevent confusion due to time zone crossing. See the AAL87 flight status page for this flight to view local times or setup timezone preferences in your user account.

Time Position Orientation Groundspeed Altitude Reporting Facility
EDT Latitude Longitude Course Direction KTS MPH feet Rate Location/Type
Tue 05:44:16 AM 51.4632 -0.3991 1000° North 1,600  Level FlightAware ADS-B
Tue 05:44:42 AM 51.4433 -0.3926 169° South 179 206 2,400 1,902 Climbing FlightAware ADS-B
Tue 05:44:57 AM 51.4323 -0.4047 215° Southwest 192 221 2,900 2,200 Climbing FlightAware ADS-B
Tue 05:45:12 AM 51.4218 -0.4185 219° Southwest 190 219 3,500 1,688 Climbing FlightAware ADS-B
Tue 05:45:29 AM 51.4107 -0.4343 222° Southwest 206 237 3,800 938 Climbing FlightAware ADS-B
Tue 05:45:44 AM 51.4016 -0.4535 233° Southwest 218 251 4,000 800 Climbing FlightAware ADS-B
Tue 05:45:59 AM 51.3992 -0.4805 262° West 246 283 4,200 1,200 Climbing FlightAware ADS-B
Tue 05:46:14 AM 51.3988 -0.5095 269° West 263 303 4,600 1,600 Climbing FlightAware ADS-B
Tue 05:46:29 AM 51.3988 -0.5402 270° West 279 321 5,000 1,688 Climbing FlightAware ADS-B
Tue 05:46:46 AM 51.4011 -0.5750 276° West 286 329 5,500 1,412 Climbing FlightAware ADS-B
Tue 05:47:03 AM 51.4045 -0.6092 279° West 286 329 5,800 563 Climbing FlightAware ADS-B
Tue 05:47:18 AM 51.4083 -0.6413 281° West 284 327 5,800 194 Level FlightAware ADS-B
Tue 05:47:34 AM 51.4121 -0.6741 281° West 286 329 5,900 194 Climbing FlightAware ADS-B
Tue 05:47:49 AM 51.4155 -0.7054 280° West 284 327 5,900 387 Level FlightAware ADS-B
Tue 05:48:05 AM 51.4188 -0.7376 279° West 284 327 6,100 1,742 Climbing FlightAware ADS-B
Tue 05:48:20 AM 51.4218 -0.7700 278° West 285 328 6,800 3,200 Climbing FlightAware ADS-B
Tue 05:48:35 AM 51.4248 -0.8012 279° West 279 321 7,700 2,516 Climbing FlightAware ADS-B
Tue 05:48:51 AM 51.4285 -0.8336 280° West 280 322 8,100 1,548 Climbing FlightAware ADS-B
Tue 05:49:06 AM 51.4354 -0.8647 290° West 293 337 8,500 2,129 Climbing FlightAware ADS-B
Tue 05:49:22 AM 51.4435 -0.8950 293° West 291 335 9,200 2,647 Climbing FlightAware ADS-B
Tue 05:49:40 AM 51.4540 -0.9333 294° West 295 339 10,000 1,920 Climbing FlightAware ADS-B
Tue 05:50:12 AM 51.4715 -0.9994 293° West 314 361 10,800 -346 Climbing FlightAware ADS-B
Tue 05:50:32 AM 51.4800 -1.0473 293° West 324 373 9,700 1,161 Descending FlightAware UK
Tue 05:50:43 AM 51.4900 -1.0690 293° West 347 399 11,400 3,429 Climbing FlightAware ADS-B
Tue 05:51:14 AM 51.5090 -1.1481 291° West 374 430 12,100 245 Climbing FlightAware ADS-B
Tue 05:51:32 AM 51.5155 -1.1996 291° West 366 421 11,600 2,710 Descending FlightAware UK
Tue 05:51:45 AM 51.5262 -1.2299 291° West 381 438 13,500 4,186 Climbing FlightAware ADS-B
Tue 05:52:15 AM 51.5429 -1.3129 288° West 392 451 14,600 113 Climbing FlightAware ADS-B
Tue 05:52:38 AM 51.5518 -1.3794 288° West 378 435 13,600 1,600 Descending FlightAware UK
Tue 05:52:45 AM 51.5593 -1.3956 288° West 386 444 15,400 2,600 Climbing FlightAware ADS-B
Tue 05:53:08 AM 51.5683 -1.4630 288° West 390 449 14,900 2,667 Descending FlightAware UK
Tue 05:53:39 AM 51.5884 -1.5472 288° West 396 456 17,800 2,375 Climbing FlightAware ADS-B
Tue 05:53:56 AM 51.5940 -1.5984 288° West 400 460 16,800 2,200 Descending FlightAware UK
Tue 05:54:09 AM 51.6050 -1.6333 288° West 403 464 18,900 2,200 Climbing FlightAware ADS-B
Tue 05:54:26 AM 51.6106 -1.6854 288° West 406 467 17,900 1,935 Descending FlightAware UK
Tue 05:54:40 AM 51.6225 -1.7242 288° West 419 482 19,900 4,267 Climbing FlightAware ADS-B
Tue 05:55:11 AM 51.6399 -1.8153 287° West 419 482 21,100 2,476 Climbing FlightAware ADS-B
Tue 05:55:43 AM 51.6584 -1.9130 287° West 419 482 22,500 2,129 Climbing FlightAware ADS-B
Tue 05:56:13 AM 51.6759 -2.0046 287° West 424 488 23,300 436 Climbing FlightAware ADS-B
Tue 05:56:38 AM 51.6858 -2.0827 287° West 430 495 22,900 2,625 Descending FlightAware UK
Tue 05:56:45 AM 51.6936 -2.1014 287° West 430 495 24,700 3,947 Climbing FlightAware ADS-B
Tue 05:57:16 AM 51.7096 -2.1993 285° West 441 507 25,400 -766 Climbing FlightAware ADS-B
Tue 05:57:32 AM 51.7122 -2.2510 285° West 446 513 24,100 1,742 Descending FlightAware UK
Tue 05:57:47 AM 51.7228 -2.2963 285° West 442 509 26,300 4,133 Climbing FlightAware ADS-B
Tue 05:58:17 AM 51.7367 -2.3937 283° West 446 513 27,200 -353 Climbing FlightAware ADS-B
Tue 05:58:38 AM 51.7453 -2.4625 283° West 456 525 26,000 1,440 Descending FlightAware UK
Tue 05:58:52 AM 51.7570 -2.5010 283° West 27,900 4,966 Climbing FlightAware ADS-B
Tue 05:59:07 AM 51.7683 -2.5531 289° West 454 522 28,400 -353 Climbing FlightAware ADS-B
Tue 05:59:43 AM 51.7886 -2.6744 289° West 466 536 27,600 267 Descending FlightAware UK
Tue 06:00:17 AM 51.8130 -2.7730 289° West 29,800 1,333 Climbing FlightAware ADS-B
Tue 06:00:37 AM 51.8235 -2.8526 289° West 474 545 28,800 -321 Descending FlightAware UK
Tue 06:00:57 AM 51.8360 -2.9080 289° West 30,600 1,167 Climbing FlightAware ADS-B
Tue 06:01:13 AM 51.8417 -2.9750 289° West 478 550 29,500 -1,412 Descending FlightAware UK
Tue 06:01:31 AM 51.8507 -3.0365 283° West 480 552 29,800 1,467 Climbing FlightAware UK
Tue 06:01:42 AM 51.8580 -3.0580 283° West 31,500 1,583 Climbing FlightAware ADS-B
Tue 06:02:22 AM 51.8790 -3.1980 284° West 32,600 197 Climbing FlightAware ADS-B
Tue 06:02:43 AM 51.8864 -3.2836 284° West 482 555 31,700 105 Descending FlightAware UK
Tue 06:03:02 AM 51.8970 -3.3260 284° West 33,800 1,667 Climbing FlightAware ADS-B
Tue 06:03:19 AM 51.9029 -3.4031 284° West 480 552 32,700 -585 Descending FlightAware UK
Tue 06:03:43 AM 51.9139 -3.4830 283° West 480 552 33,400 889 Climbing FlightAware UK
Tue 06:03:47 AM 51.9170 -3.4770 283° West 34,900 200 Climbing FlightAware ADS-B
Tue 06:04:13 AM 51.9266 -3.5822 283° West 472 543 33,500 -1,500 Descending FlightAware UK
Tue 06:04:27 AM 51.9370 -3.6180 283° West 35,000  Climbing FlightAware ADS-B
Tue 06:04:43 AM 51.9413 -3.6797 283° West 474 545 33,500 -2,647 Descending FlightAware UK
Tue 06:05:01 AM 51.9503 -3.7395 284° West 476 548 33,500  Level FlightAware UK
Tue 06:05:12 AM 51.9590 -3.7680 284° West 35,000  Climbing FlightAware ADS-B
Tue 06:05:31 AM 51.9646 -3.8383 284° West 476 548 33,500 -1,233 Descending FlightAware UK
Tue 06:05:52 AM 51.9780 -3.9000 284° West 35,000  Climbing FlightAware ADS-B
Tue 06:06:25 AM 51.9896 -4.0160 284° West 478 550 33,500 -1,304 Descending FlightAware UK
Tue 06:06:32 AM 51.9960 -4.0300 284° West 35,000  Climbing FlightAware ADS-B
Tue 06:07:01 AM 52.0061 -4.1350 284° West 478 550 33,500 -1,268 Descending FlightAware UK
Tue 06:07:17 AM 52.0160 -4.1720 284° West 35,000  Climbing FlightAware ADS-B
Tue 06:07:43 AM 52.0253 -4.2738 284° West 480 552 33,500 -1,607 Descending FlightAware UK
Tue 06:07:57 AM 52.0350 -4.3090 284° West 35,000  Climbing FlightAware ADS-B
Tue 06:08:13 AM 52.0389 -4.3728 284° West 480 552 33,500 -1,200 Descending FlightAware UK
Tue 06:08:42 AM 52.0550 -4.4550 284° West 35,000  Climbing FlightAware ADS-B
Tue 06:09:12 AM 52.0657 -4.5694 284° West 478 550 33,500 -1,250 Descending FlightAware UK
Tue 06:09:22 AM 52.0720 -4.5870 284° West 35,000  Climbing FlightAware ADS-B
Tue 06:09:54 AM 52.0842 -4.7071 284° West 478 550 33,500 -1,452 Descending FlightAware UK
Tue 06:10:07 AM 52.0920 -4.7320 284° West 35,000  Climbing FlightAware ADS-B
Tue 06:10:24 AM 52.0972 -4.8056 284° West 478 550 33,500 -2,571 Descending FlightAware UK
Tue 06:10:42 AM 52.1050 -4.8647 282° West 478 550 33,500  Level FlightAware UK
Tue 06:10:47 AM 52.1100 -4.8670 282° West 35,000  Climbing FlightAware ADS-B
Tue 06:11:06 AM 52.1154 -4.9428 282° West 478 550 33,500 -2,432 Descending FlightAware UK
Tue 06:11:24 AM 52.1233 -5.0019 282° West 478 550 33,500  Level FlightAware UK
Tue 06:11:27 AM 52.1270 -4.9940 282° West 35,000  Climbing FlightAware ADS-B
Tue 06:11:48 AM 52.1336 -5.0807 282° West 476 548 33,500 -1,304 Descending FlightAware UK
Tue 06:12:12 AM 52.1480 -5.1480 282° West 35,000  Climbing FlightAware ADS-B
Tue 06:12:36 AM 52.1581 -5.2360 282° West 476 548 33,500 -1,364 Descending FlightAware UK
Tue 06:12:52 AM 52.1700 -5.2730 282° West 35,000  Climbing FlightAware ADS-B
Tue 06:13:18 AM 52.1834 -5.3707 282° West 474 545 33,500 -738 Descending FlightAware UK
Tue 06:13:37 AM 52.1970 -5.4160 282° West 35,000  Climbing FlightAware ADS-B
Tue 06:14:17 AM 52.2210 -5.5430 287° West 35,000 -1,169 Level FlightAware ADS-B
Tue 06:14:54 AM 52.2439 -5.6761 287° West 472 543 33,500 -1,636 Descending FlightAware UK
Tue 06:14:57 AM 52.2490 -5.6760 287° West 35,000  Climbing FlightAware ADS-B
Tue 06:15:12 AM 52.2597 -5.7307 287° West 474 545 33,500 -2,727 Descending FlightAware UK
Tue 06:15:30 AM 52.2780 -5.7837 299° West 472 543 33,500  Level FlightAware UK
Tue 06:15:42 AM 52.2910 -5.8070 299° West 35,000  Climbing FlightAware ADS-B
Tue 06:16:00 AM 52.3091 -5.8716 299° West 472 543 33,500 -2,500 Descending FlightAware UK
Tue 06:16:18 AM 52.3279 -5.9241 300° West 470 541 33,500  Level FlightAware UK
Tue 06:16:22 AM 52.3340 -5.9280 300° West 35,000  Climbing FlightAware ADS-B
Tue 06:16:42 AM 52.3531 -5.9943 300° West 472 543 33,500 -2,368 Descending FlightAware UK
Tue 06:17:00 AM 52.3716 -6.0466 300° West 472 543 33,500  Level FlightAware UK
Tue 06:17:07 AM 52.3800 -6.0560 300° West 35,000  Climbing FlightAware ADS-B
Tue 06:17:24 AM 52.3965 -6.1174 300° West 472 543 33,500 -2,571 Descending FlightAware UK
Tue 06:17:42 AM 52.4152 -6.1707 300° West 472 543 33,500  Level FlightAware UK
Tue 06:17:47 AM 52.4230 -6.1780 300° West 35,000  Climbing FlightAware ADS-B
Tue 06:18:06 AM 52.4400 -6.2419 300° West 474 545 33,500 -2,432 Descending FlightAware UK
Tue 06:18:24 AM 52.4586 -6.2954 300° West 474 545 33,500  Level FlightAware UK
Tue 06:18:27 AM 52.4640 -6.2970 300° West 35,000  Climbing FlightAware ADS-B
Tue 06:18:42 AM 52.4772 -6.3490 300° West 474 545 33,500 -2,727 Descending FlightAware UK
Tue 06:19:00 AM 52.4958 -6.4027 300° West 474 545 33,500  Level FlightAware UK
Tue 06:19:12 AM 52.5090 -6.4280 300° West 35,000  Climbing FlightAware ADS-B
Tue 06:19:30 AM 52.5269 -6.4921 300° West 474 545 33,500 -2,500 Descending FlightAware UK
Tue 06:19:48 AM 52.5454 -6.5459 300° West 474 545 33,500  Level FlightAware UK
Tue 06:19:52 AM 52.5510 -6.5490 300° West 35,000  Climbing FlightAware ADS-B
Tue 06:20:12 AM 52.5701 -6.6176 300° West 474 545 33,500 -2,368 Descending FlightAware UK
Tue 06:20:30 AM 52.5885 -6.6716 299° West 474 545 33,500  Level FlightAware UK
Tue 06:20:47 AM 52.6070 -6.7110 299° West 35,000  Climbing FlightAware ADS-B
Tue 06:21:06 AM 52.6255 -6.7796 299° West 476 548 33,500 -2,432 Descending FlightAware UK
Tue 06:21:24 AM 52.6439 -6.8336 299° West 472 543 33,500  Level FlightAware UK
Tue 06:21:32 AM 52.6550 -6.8520 299° West 35,000  Climbing FlightAware ADS-B
Tue 06:21:48 AM 52.6685 -6.9057 299° West 474 545 33,500 -2,647 Descending FlightAware UK
Tue 06:22:06 AM 52.6870 -6.9599 299° West 472 543 33,500  Level FlightAware UK
Tue 06:22:12 AM 52.6960 -6.9710 299° West 35,000  Climbing FlightAware ADS-B
Tue 06:22:30 AM 52.7114 -7.0323 299° West 472 543 33,500 -2,500 Descending FlightAware UK
Tue 06:22:48 AM 52.7298 -7.0868 299° West 472 543 33,500  Level FlightAware UK
Tue 06:22:57 AM 52.7410 -7.1060 299° West 35,000  Climbing FlightAware ADS-B
Tue 06:23:12 AM 52.7542 -7.1595 299° West 472 543 33,500 -2,727 Descending FlightAware UK
Tue 06:23:30 AM 52.7725 -7.2143 299° West 474 545 33,500  Level FlightAware UK
Tue 06:23:37 AM 52.7820 -7.2270 299° West 35,000  Climbing FlightAware ADS-B
Tue 06:23:54 AM 52.7968 -7.2867 299° West 472 543 33,500 -2,571 Descending FlightAware UK
Tue 06:24:12 AM 52.8152 -7.3416 299° West 474 545 33,500  Level FlightAware UK
Tue 06:24:17 AM 52.8210 -7.3450 299° West 35,000  Climbing FlightAware ADS-B
Tue 06:24:36 AM 52.8397 -7.4149 299° West 474 545 33,500 -2,432 Descending FlightAware UK
Tue 06:24:54 AM 52.8581 -7.4699 299° West 474 545 33,500  Level FlightAware UK
Tue 06:25:02 AM 52.8690 -7.4890 299° West 35,000  Climbing FlightAware ADS-B
Tue 06:25:18 AM 52.8824 -7.5434 299° West 474 545 33,500 -2,647 Descending FlightAware UK
Tue 06:25:36 AM 52.9006 -7.5987 299° West 472 543 33,500  Level FlightAware UK
Tue 06:25:42 AM 52.9090 -7.6080 299° West 35,000  Climbing FlightAware ADS-B
Tue 06:26:00 AM 52.9249 -7.6724 299° West 474 545 33,500 -2,500 Descending FlightAware UK
Tue 06:26:18 AM 52.9431 -7.7277 299° West 474 545 33,500  Level FlightAware UK
Tue 06:26:27 AM 52.9540 -7.7440 299° West 35,000  Climbing FlightAware ADS-B
Tue 06:26:42 AM 52.9674 -7.8017 299° West 474 545 33,500 -2,727 Descending FlightAware UK
Tue 06:27:00 AM 52.9856 -7.8573 299° West 474 545 33,500  Level FlightAware UK
Tue 06:27:07 AM 52.9940 -7.8690 299° West 35,000  Climbing FlightAware ADS-B
Tue 06:27:24 AM 53.0099 -7.9315 299° West 474 545 33,500 -2,571 Descending FlightAware UK
Tue 06:27:42 AM 53.0280 -7.9874 298° West 474 545 33,500  Level FlightAware UK
Tue 06:27:52 AM 53.0370 -7.9980 298° West 35,000  Climbing FlightAware ADS-B
Tue 06:28:12 AM 53.0590 -8.0798 298° West 474 545 33,500 -1,800 Descending FlightAware UK
Tue 06:28:22 AM 53.0680 -8.0930 298° West 35,000  Climbing FlightAware ADS-B
Tue 06:28:42 AM 53.0897 -8.1727 298° West 478 550 33,500 -2,368 Descending FlightAware UK
Tue 06:29:00 AM 53.1081 -8.2286 299° West 474 545 33,500  Level FlightAware UK
Tue 06:29:12 AM 53.1190 -8.2460 299° West 35,000  Climbing FlightAware ADS-B
Tue 06:29:57 AM 53.1690 -8.3950 299° West 35,000 -1,364 Level FlightAware ADS-B
Tue 06:30:18 AM 53.1880 -8.4699 299° West 476 548 33,500 -2,308 Descending FlightAware UK
Tue 06:30:36 AM 53.2063 -8.5260 299° West 474 545 33,500  Level FlightAware UK
Tue 06:30:47 AM 53.2180 -8.5440 299° West 35,000  Climbing FlightAware ADS-B
Tue 06:31:06 AM 53.2373 -8.6194 299° West 474 545 33,500 -2,432 Descending FlightAware UK
Tue 06:31:24 AM 53.2560 -8.6754 299° West 474 545 33,500  Level FlightAware UK
Tue 06:31:32 AM 53.2630 -8.6820 299° West 35,000  Climbing FlightAware ADS-B
Tue 06:31:48 AM 53.2806 -8.7504 299° West 474 545 33,500 -2,647 Descending FlightAware UK
Tue 06:32:06 AM 53.2990 -8.8067 299° West 472 543 33,500  Level FlightAware UK
Tue 06:32:17 AM 53.3090 -8.8220 299° West 35,000  Climbing FlightAware ADS-B
Tue 06:32:36 AM 53.3301 -8.9002 299° West 472 543 33,500 -2,432 Descending FlightAware UK
Tue 06:32:54 AM 53.3485 -8.9567 299° West 474 545 33,500  Level FlightAware UK
Tue 06:32:57 AM 53.3510 -8.9490 299° West 35,000  Climbing FlightAware ADS-B
Tue 06:33:12 AM 53.3660 -9.0144 299° West 474 545 33,500  Descending FlightAware UK
Tue 06:33:42 AM 53.3950 -9.0910 299° West 35,000 28 Climbing FlightAware ADS-B
Tue 06:34:17 AM 53.4290 -9.2050 297° West 35,000  Level FlightAware ADS-B
Tue 06:34:57 AM 53.4700 -9.3370 298° West 35,000  Level FlightAware ADS-B
Tue 06:35:37 AM 53.5070 -9.4590 297° West 35,000  Level FlightAware ADS-B
Tue 06:36:22 AM 53.5490 -9.5970 297° West 35,000  Level FlightAware ADS-B
Tue 06:37:22 AM 53.6100 -9.7990 297° West 35,000  Level FlightAware ADS-B
Tue 06:38:07 AM 53.6540 -9.9470 297° West 35,000  Level FlightAware ADS-B
Tue 06:38:47 AM 53.6930 -10.0770 297° West 35,000  Level FlightAware ADS-B
Tue 06:39:27 AM 53.7310 -10.2070 296° West 35,000  Level FlightAware ADS-B
Tue 06:40:12 AM 53.7740 -10.3530 297° West 35,000  Level FlightAware ADS-B
Tue 06:40:52 AM 53.8110 -10.4810 296° West 35,000  Level FlightAware ADS-B
Tue 06:41:32 AM 53.8500 -10.6130 297° West 35,000  Level FlightAware ADS-B
Tue 06:42:17 AM 53.8930 -10.7630 296° West 35,000  Level FlightAware ADS-B
Tue 06:42:57 AM 53.9290 -10.8890 296° West 35,000  Level FlightAware ADS-B
Tue 06:43:42 AM 53.9740 -11.0450 296° West 35,000  Level FlightAware ADS-B
Tue 06:44:22 AM 54.0070 -11.1620 296° West 35,000  Level FlightAware ADS-B
Tue 06:45:07 AM 54.0510 -11.3200 295° West 35,000  Level FlightAware ADS-B
Tue 06:46:02 AM 54.1030 -11.5040 296° West 35,000  Level FlightAware ADS-B
Tue 06:46:42 AM 54.1400 -11.6360 296° West 35,000  Level FlightAware ADS-B
Tue 06:47:32 AM 54.1830 -11.7940 295° West 35,000  Level FlightAware ADS-B
Tue 06:48:22 AM 54.2300 -11.9640 295° West 35,000  Level FlightAware ADS-B
Tue 06:48:57 AM 54.2620 -12.0790 296° West 35,000  Level FlightAware ADS-B
Tue 06:49:47 AM 54.3090 -12.2530 295° West 35,000  Level FlightAware ADS-B
Tue 06:50:27 AM 54.3460 -12.3910 295° West 35,000  Level FlightAware ADS-B
Tue 06:51:07 AM 54.3840 -12.5320 295° West 35,000  Level FlightAware ADS-B
Tue 06:51:52 AM 54.4210 -12.6720 294° West 35,000  Level FlightAware ADS-B
Tue 06:52:32 AM 54.4570 -12.8080 295° West 35,000  Level FlightAware ADS-B
Tue 06:53:27 AM 54.5020 -12.9780 295° West 35,000  Level FlightAware ADS-B
Tue 06:54:12 AM 54.5430 -13.1360 294° West 35,000  Level FlightAware ADS-B
Tue 06:54:52 AM 54.5760 -13.2630 294° West 35,000  Level FlightAware ADS-B
Tue 06:55:32 AM 54.6100 -13.3970 294° West 35,000  Level FlightAware ADS-B
Tue 06:56:17 AM 54.6490 -13.5490 294° West 35,000  Level FlightAware ADS-B
Tue 06:57:02 AM 54.6870 -13.6950 294° West 35,000  Level FlightAware ADS-B
Tue 06:59:00 AM 54.7561 -14.0847 287° West  Level Estimated
Tue 07:00:00 AM 54.7907 -14.2834 287° West  Level Estimated
Tue 07:01:00 AM 54.8250 -14.4824 287° West  Level Estimated
Tue 07:02:00 AM 54.8590 -14.6818 287° West  Level Estimated
Tue 07:03:00 AM 54.8926 -14.8814 286° West  Level Estimated
Tue 07:04:00 AM 54.9259 -15.0815 286° West  Level Estimated
Tue 07:05:00 AM 54.9589 -15.2818 286° West  Level Estimated
Tue 07:06:00 AM 54.9916 -15.4825 286° West  Level Estimated
Tue 07:07:00 AM 55.0239 -15.6835 286° West  Level Estimated
Tue 07:08:00 AM 55.0559 -15.8848 286° West  Level Estimated
Tue 07:09:00 AM 55.0876 -16.0864 285° West  Level Estimated
Tue 07:10:00 AM 55.1189 -16.2884 285° West  Level Estimated
Tue 07:11:00 AM 55.1508 -16.4966 285° West  Level Estimated
Tue 07:12:00 AM 55.1824 -16.7052 285° West  Level Estimated
Tue 07:13:00 AM 55.2136 -16.9140 285° West  Level Estimated
Tue 07:14:00 AM 55.2444 -17.1232 285° West  Level Estimated
Tue 07:15:00 AM 55.2749 -17.3327 284° West  Level Estimated
Tue 07:16:00 AM 55.3050 -17.5426 284° West  Level Estimated
Tue 07:17:00 AM 55.3348 -17.7527 284° West  Level Estimated
Tue 07:18:00 AM 55.3642 -17.9632 284° West  Level Estimated
Tue 07:19:00 AM 55.3932 -18.1740 284° West  Level Estimated
Tue 07:20:00 AM 55.4219 -18.3851 284° West  Level Estimated
Tue 07:21:00 AM 55.4502 -18.5965 283° West  Level Estimated
Tue 07:22:00 AM 55.4781 -18.8082 283° West  Level Estimated
Tue 07:23:00 AM 55.5057 -19.0202 283° West  Level Estimated
Tue 07:24:00 AM 55.5329 -19.2325 283° West  Level Estimated
Tue 07:25:00 AM 55.5598 -19.4450 283° West  Level Estimated
Tue 07:26:00 AM 55.5862 -19.6579 282° West  Level Estimated
Tue 07:26:00 AM 55.0000 -20.0000 274° West 458 527 35,000  Level ETMS Enhanced Traffic Management System
Tue 07:27:00 AM 55.6117 -19.8655 282° West  Level Estimated
Tue 07:28:00 AM 55.6367 -20.0734 282° West  Level Estimated
Tue 07:29:00 AM 55.6615 -20.2816 282° West  Level Estimated
Tue 07:30:00 AM 55.6858 -20.4900 282° West  Level Estimated
Tue 07:31:00 AM 55.7099 -20.6987 282° West  Level Estimated
Tue 07:32:00 AM 55.0474 -21.3304 273° West 458 527 35,000  Level FlightAware Transoceanic
Tue 07:33:00 AM 55.0538 -21.5525 273° West 458 527 35,000  Level FlightAware Transoceanic
Tue 07:34:00 AM 55.0599 -21.7746 273° West 458 527 35,000  Level FlightAware Transoceanic
Tue 07:35:00 AM 55.0656 -21.9967 272° West 458 527 35,000  Level FlightAware Transoceanic
Tue 07:36:00 AM 55.0709 -22.2189 272° West 458 527 35,000  Level FlightAware Transoceanic
Tue 07:37:00 AM 55.0757 -22.4412 272° West 458 527 35,000  Level FlightAware Transoceanic
Tue 07:38:00 AM 55.0802 -22.6635 272° West 458 527 35,000  Level FlightAware Transoceanic
Tue 07:39:00 AM 55.0843 -22.8859 272° West 458 527 35,000  Level FlightAware Transoceanic
Tue 07:40:00 AM 55.0879 -23.1083 272° West 458 527 35,000  Level FlightAware Transoceanic
Tue 07:41:00 AM 55.0912 -23.3308 271° West 458 527 35,000  Level FlightAware Transoceanic
Tue 07:42:00 AM 55.0940 -23.5533 271° West 458 527 35,000  Level FlightAware Transoceanic
Tue 07:43:00 AM 55.0964 -23.7758 271° West 458 527 35,000  Level FlightAware Transoceanic
Tue 07:44:00 AM 55.0985 -23.9984 271° West 458 527 35,000  Level FlightAware Transoceanic
Tue 07:45:00 AM 55.1001 -24.2209 271° West 458 527 35,000  Level FlightAware Transoceanic
Tue 07:46:00 AM 55.1013 -24.4435 270° West 458 527 35,000  Level FlightAware Transoceanic
Tue 07:47:00 AM 55.1021 -24.6661 270° West 458 527 35,000  Level FlightAware Transoceanic
Tue 07:48:00 AM 55.1025 -24.8887 270° West 458 527 35,000  Level FlightAware Transoceanic
Tue 07:49:00 AM 55.1025 -25.1113 270° West 458 527 35,000  Level FlightAware Transoceanic
Tue 07:50:00 AM 55.1021 -25.3339 270° West 458 527 35,000  Level FlightAware Transoceanic
Tue 07:51:00 AM 55.1013 -25.5565 270° West 458 527 35,000  Level FlightAware Transoceanic
Tue 07:52:00 AM 55.1001 -25.7791 269° West 458 527 35,000  Level FlightAware Transoceanic
Tue 07:53:00 AM 55.0985 -26.0016 269° West 458 527 35,000  Level FlightAware Transoceanic
Tue 07:54:00 AM 55.0964 -26.2242 269° West 458 527 35,000  Level FlightAware Transoceanic
Tue 07:55:00 AM 55.0940 -26.4467 269° West 458 527 35,000  Level FlightAware Transoceanic
Tue 07:56:00 AM 55.0912 -26.6692 269° West 458 527 35,000  Level FlightAware Transoceanic
Tue 07:57:00 AM 55.0879 -26.8917 268° West 458 527 35,000  Level FlightAware Transoceanic
Tue 07:58:00 AM 55.0843 -27.1141 268° West 458 527 35,000  Level FlightAware Transoceanic
Tue 07:59:00 AM 55.0802 -27.3365 268° West 458 527 35,000  Level FlightAware Transoceanic
Tue 08:00:00 AM 55.0757 -27.5588 268° West 458 527 35,000  Level FlightAware Transoceanic
Tue 08:01:00 AM 55.0709 -27.7811 268° West 458 527 35,000  Level FlightAware Transoceanic
Tue 08:02:00 AM 55.0656 -28.0033 268° West 458 527 35,000  Level FlightAware Transoceanic
Tue 08:03:00 AM 55.0599 -28.2254 267° West 458 527 35,000  Level FlightAware Transoceanic
Tue 08:04:00 AM 55.0538 -28.4475 267° West 458 527 35,000  Level FlightAware Transoceanic
Tue 08:05:00 AM 55.0474 -28.6696 267° West 458 527 35,000  Level FlightAware Transoceanic
Tue 08:06:00 AM 55.0405 -28.8915 267° West 458 527 35,000  Level FlightAware Transoceanic
Tue 08:07:00 AM 55.0332 -29.1134 267° West 458 527 35,000  Level FlightAware Transoceanic
Tue 08:08:00 AM 55.0255 -29.3352 266° West 458 527 35,000  Level FlightAware Transoceanic
Tue 08:09:00 AM 55.0174 -29.5569 266° West 458 527 35,000  Level FlightAware Transoceanic
Tue 08:10:00 AM 55.0089 -29.7785 266° West 458 527 35,000  Level FlightAware Transoceanic
Tue 08:11:00 AM 55.0005 -29.9873 266° West  Level FlightAware Approximate
Tue 08:12:00 AM 54.9918 -30.1959 266° West  Level FlightAware Approximate
Tue 08:13:00 AM 54.9731 -30.1776 255° West  Level FlightAware Approximate
Tue 08:14:00 AM 54.9420 -30.3808 255° West  Level FlightAware Approximate
Tue 08:15:00 AM 54.9106 -30.5837 255° West  Level FlightAware Approximate
Tue 08:16:00 AM 54.8788 -30.7863 255° West  Level FlightAware Approximate
Tue 08:17:00 AM 54.8467 -30.9886 255° West  Level FlightAware Approximate
Tue 08:18:00 AM 54.8142 -31.1906 254° West  Level FlightAware Approximate
Tue 08:19:00 AM 54.7814 -31.3922 254° West  Level FlightAware Approximate
Tue 08:20:00 AM 54.7483 -31.5935 254° West  Level FlightAware Approximate
Tue 08:21:00 AM 54.7149 -31.7945 254° West  Level FlightAware Approximate
Tue 08:22:00 AM 54.6811 -31.9951 254° West  Level FlightAware Approximate
Tue 08:23:00 AM 54.6470 -32.1954 254° West  Level FlightAware Approximate
Tue 08:24:00 AM 54.6125 -32.3954 254° West  Level FlightAware Approximate
Tue 08:25:00 AM 54.5777 -32.5950 253° West  Level FlightAware Approximate
Tue 08:26:00 AM 54.5426 -32.7943 253° West  Level FlightAware Approximate
Tue 08:27:00 AM 54.5072 -32.9932 253° West  Level FlightAware Approximate
Tue 08:28:00 AM 54.4714 -33.1918 253° West  Level FlightAware Approximate
Tue 08:29:00 AM 54.4354 -33.3901 253° West  Level FlightAware Approximate
Tue 08:30:00 AM 54.3989 -33.5880 253° West  Level FlightAware Approximate
Tue 08:31:00 AM 54.3622 -33.7855 252° West  Level FlightAware Approximate
Tue 08:32:00 AM 54.3252 -33.9827 252° West  Level FlightAware Approximate
Tue 08:33:00 AM 54.2878 -34.1795 252° West  Level FlightAware Approximate
Tue 08:34:00 AM 54.2501 -34.3760 252° West  Level FlightAware Approximate
Tue 08:35:00 AM 54.2121 -34.5721 252° West  Level FlightAware Approximate
Tue 08:36:00 AM 54.1738 -34.7679 252° West  Level FlightAware Approximate
Tue 08:37:00 AM 54.1351 -34.9633 251° West  Level FlightAware Approximate
Tue 08:38:00 AM 54.0962 -35.1583 251° West  Level FlightAware Approximate
Tue 08:39:00 AM 54.0569 -35.3529 251° West  Level FlightAware Approximate
Tue 08:40:00 AM 54.0173 -35.5472 251° West  Level FlightAware Approximate
Tue 08:41:00 AM 53.9774 -35.7411 251° West  Level FlightAware Approximate
Tue 08:42:00 AM 53.9372 -35.9347 251° West  Level FlightAware Approximate
Tue 08:43:00 AM 53.8967 -36.1278 250° West  Level FlightAware Approximate
Tue 08:44:00 AM 53.8558 -36.3206 250° West  Level FlightAware Approximate
Tue 08:45:00 AM 53.8147 -36.5130 250° West  Level FlightAware Approximate
Tue 08:46:00 AM 53.7732 -36.7051 250° West  Level FlightAware Approximate
Tue 08:47:00 AM 53.7315 -36.8967 250° West  Level FlightAware Approximate
Tue 08:48:00 AM 53.6894 -37.0880 250° West  Level FlightAware Approximate
Tue 08:49:00 AM 53.6470 -37.2789 250° West  Level FlightAware Approximate
Tue 08:50:00 AM 53.6044 -37.4694 249° West  Level FlightAware Approximate
Tue 08:51:00 AM 53.5614 -37.6595 249° West  Level FlightAware Approximate
Tue 08:52:00 AM 53.5181 -37.8492 249° West  Level FlightAware Approximate
Tue 08:53:00 AM 53.4746 -38.0386 249° West  Level FlightAware Approximate
Tue 08:54:00 AM 53.4307 -38.2275 249° West  Level FlightAware Approximate
Tue 08:55:00 AM 53.3865 -38.4161 249° West  Level FlightAware Approximate
Tue 08:56:00 AM 53.3421 -38.6043 248° West  Level FlightAware Approximate
Tue 08:57:00 AM 53.2973 -38.7920 248° West  Level FlightAware Approximate
Tue 08:58:00 AM 53.2523 -38.9794 248° West  Level FlightAware Approximate
Tue 08:59:00 AM 53.2069 -39.1664 248° West  Level FlightAware Approximate
Tue 09:00:00 AM 53.1613 -39.3530 248° West  Level FlightAware Approximate
Tue 09:01:00 AM 53.1153 -39.5392 248° West  Level FlightAware Approximate
Tue 09:02:00 AM 53.0694 -39.7238 248° West  Level FlightAware Approximate
Tue 09:03:00 AM 53.0232 -39.9081 247° West  Level FlightAware Approximate
Tue 09:04:00 AM 52.9854 -40.0969 256° West  Level FlightAware Approximate
Tue 09:05:00 AM 52.9560 -40.2901 256° West  Level FlightAware Approximate
Tue 09:06:00 AM 52.9264 -40.4831 256° West  Level FlightAware Approximate
Tue 09:07:00 AM 52.8964 -40.6758 256° West  Level FlightAware Approximate
Tue 09:08:00 AM 52.8661 -40.8683 255° West  Level FlightAware Approximate
Tue 09:09:00 AM 52.8354 -41.0604 255° West  Level FlightAware Approximate
Tue 09:10:00 AM 52.8045 -41.2523 255° West  Level FlightAware Approximate
Tue 09:11:00 AM 52.7733 -41.4440 255° West  Level FlightAware Approximate
Tue 09:12:00 AM 52.7417 -41.6353 255° West  Level FlightAware Approximate
Tue 09:13:00 AM 52.7099 -41.8264 255° West  Level FlightAware Approximate
Tue 09:14:00 AM 52.6777 -42.0172 255° West  Level FlightAware Approximate
Tue 09:15:00 AM 52.6453 -42.2077 254° West  Level FlightAware Approximate
Tue 09:16:00 AM 52.6125 -42.3980 254° West  Level FlightAware Approximate
Tue 09:17:00 AM 52.5794 -42.5879 254° West  Level FlightAware Approximate
Tue 09:18:00 AM 52.5461 -42.7776 254° West  Level FlightAware Approximate
Tue 09:19:00 AM 52.5124 -42.9669 254° West  Level FlightAware Approximate
Tue 09:20:00 AM 52.4784 -43.1560 254° West  Level FlightAware Approximate
Tue 09:21:00 AM 52.4441 -43.3448 253° West  Level FlightAware Approximate
Tue 09:22:00 AM 52.4095 -43.5333 253° West  Level FlightAware Approximate
Tue 09:23:00 AM 52.3747 -43.7215 253° West  Level FlightAware Approximate
Tue 09:24:00 AM 52.3395 -43.9094 253° West  Level FlightAware Approximate
Tue 09:25:00 AM 52.3040 -44.0970 253° West  Level FlightAware Approximate
Tue 09:26:00 AM 52.2682 -44.2843 253° West  Level FlightAware Approximate
Tue 09:27:00 AM 52.2322 -44.4712 253° West  Level FlightAware Approximate
Tue 09:28:00 AM 52.1958 -44.6579 252° West  Level FlightAware Approximate
Tue 09:29:00 AM 52.1591 -44.8443 252° West  Level FlightAware Approximate
Tue 09:30:00 AM 52.1222 -45.0304 252° West  Level FlightAware Approximate
Tue 09:31:00 AM 52.0849 -45.2161 252° West  Level FlightAware Approximate
Tue 09:32:00 AM 52.0474 -45.4016 252° West  Level FlightAware Approximate
Tue 09:33:00 AM 52.0096 -45.5867 252° West  Level FlightAware Approximate
Tue 09:34:00 AM 51.9715 -45.7715 252° West  Level FlightAware Approximate
Tue 09:35:00 AM 51.9331 -45.9561 251° West  Level FlightAware Approximate
Tue 09:36:00 AM 51.8944 -46.1403 251° West  Level FlightAware Approximate
Tue 09:37:00 AM 51.8554 -46.3241 251° West  Level FlightAware Approximate
Tue 09:38:00 AM 51.8161 -46.5077 251° West  Level FlightAware Approximate
Tue 09:39:00 AM 51.7766 -46.6909 251° West  Level FlightAware Approximate
Tue 09:40:00 AM 51.7368 -46.8738 251° West  Level FlightAware Approximate
Tue 09:41:00 AM 51.6966 -47.0564 251° West  Level FlightAware Approximate
Tue 09:42:00 AM 51.6562 -47.2387 250° West  Level FlightAware Approximate
Tue 09:43:00 AM 51.6156 -47.4206 250° West  Level FlightAware Approximate
Tue 09:44:00 AM 51.5746 -47.6022 250° West  Level FlightAware Approximate
Tue 09:45:00 AM 51.5334 -47.7835 250° West  Level FlightAware Approximate
Tue 09:46:00 AM 51.4918 -47.9644 250° West  Level FlightAware Approximate
Tue 09:47:00 AM 51.4500 -48.1451 250° West  Level FlightAware Approximate
Tue 09:48:00 AM 51.4080 -48.3254 250° West  Level FlightAware Approximate
Tue 09:49:00 AM 51.3656 -48.5053 249° West  Level FlightAware Approximate
Tue 09:50:00 AM 51.3230 -48.6849 249° West  Level FlightAware Approximate
Tue 09:51:00 AM 51.2801 -48.8642 249° West  Level FlightAware Approximate
Tue 09:52:00 AM 51.2369 -49.0432 249° West  Level FlightAware Approximate
Tue 09:53:00 AM 51.1935 -49.2218 249° West  Level FlightAware Approximate
Tue 09:54:00 AM 51.1497 -49.4001 249° West  Level FlightAware Approximate
Tue 09:55:00 AM 51.1057 -49.5780 249° West  Level FlightAware Approximate
Tue 09:56:00 AM 51.0615 -49.7556 248° West  Level FlightAware Approximate
Tue 09:57:00 AM 51.0169 -49.9332 248° West  Level FlightAware Approximate
Tue 09:58:00 AM 50.9637 -50.0873 250° West  Level FlightAware Approximate
Tue 09:58:08 AM 50.9167 -50.3500 250° West 430 495 35,000  Level Gander Center
Tue 09:59:00 AM 50.9222 -50.2705 250° West  Level FlightAware Approximate
Tue 09:59:09 AM 50.8500 -50.5333 240° Southwest 430 495 35,000  Level Moncton Center
Tue 10:00:00 AM 50.8804 -50.4533 250° West  Level FlightAware Approximate
Tue 10:00:09 AM 50.8333 -50.7333 263° West 430 495 35,000  Level Moncton Center
Tue 10:01:00 AM 50.8383 -50.6358 250° West  Level FlightAware Approximate
Tue 10:01:09 AM 50.8000 -50.9000 252° West 430 495 35,000  Level Moncton Center
Tue 10:02:00 AM 50.7960 -50.8180 250° West  Level FlightAware Approximate
Tue 10:02:09 AM 50.7667 -51.1000 255° West 430 495 35,000  Level Moncton Center
Tue 10:03:00 AM 50.7533 -50.9999 250° West  Level FlightAware Approximate
Tue 10:03:12 AM 50.7667 -51.3000 270° West 430 495 35,000  Level Gander Center
Tue 10:04:12 AM 50.7333 -51.4833 254° West 430 495 35,000  Level Gander Center
Tue 10:05:12 AM 50.6833 -51.6500 245° Southwest 430 495 35,000  Level Gander Center
Tue 10:11:07 AM 50.5180 -52.7800 245° Southwest 475 547 35,000  Level FlightAware ADS-B
Tue 10:12:02 AM 50.4870 -52.9520 254° West 473 544 35,000  Level FlightAware ADS-B
Tue 10:12:52 AM 50.4580 -53.1090 254° West 475 547 35,000  Level FlightAware ADS-B
Tue 10:13:27 AM 50.4390 -53.2140 254° West 474 545 35,000  Level FlightAware ADS-B
Tue 10:14:17 AM 50.4110 -53.3700 254° West 474 545 35,000  Level FlightAware ADS-B
Tue 10:14:57 AM 50.3880 -53.4920 254° West 474 545 35,000  Level FlightAware ADS-B
Tue 10:15:37 AM 50.3660 -53.6110 254° West 476 548 35,000  Level FlightAware ADS-B
Tue 10:16:22 AM 50.3410 -53.7460 254° West 474 545 35,000  Level FlightAware ADS-B
Tue 10:17:02 AM 50.3180 -53.8660 253° West 474 545 35,000  Level FlightAware ADS-B
Tue 10:17:47 AM 50.2940 -53.9930 254° West 473 544 35,000  Level FlightAware ADS-B
Tue 10:18:27 AM 50.2700 -54.1170 253° West 473 544 35,000  Level FlightAware ADS-B
Tue 10:19:07 AM 50.2470 -54.2370 253° West 472 543 35,000  Level FlightAware ADS-B
Tue 10:19:52 AM 50.2210 -54.3720 253° West 472 543 35,000  Level FlightAware ADS-B
Tue 10:20:32 AM 50.1990 -54.4840 253° West 470 541 35,000  Level FlightAware ADS-B
Tue 10:21:12 AM 50.1740 -54.6090 253° West 472 543 35,000  Level FlightAware ADS-B
Tue 10:21:57 AM 50.1480 -54.7420 253° West 474 545 35,000  Level FlightAware ADS-B
Tue 10:22:37 AM 50.1240 -54.8630 253° West 473 544 35,000  Level FlightAware ADS-B
Tue 10:23:22 AM 50.0980 -54.9940 253° West 473 544 35,000  Level FlightAware ADS-B
Tue 10:24:02 AM 50.0750 -55.1070 252° West 472 543 35,000  Level FlightAware ADS-B
Tue 10:24:47 AM 50.0470 -55.2460 253° West 473 544 35,000  Level FlightAware ADS-B
Tue 10:25:27 AM 50.0220 -55.3650 252° West 472 543 35,000  Level FlightAware ADS-B
Tue 10:26:07 AM 49.9980 -55.4830 252° West 473 544 35,000  Level FlightAware ADS-B
Tue 10:26:47 AM 49.9740 -55.5980 252° West 471 542 35,000  Level FlightAware ADS-B
Tue 10:27:32 AM 49.9460 -55.7320 252° West 472 543 35,000  Level FlightAware ADS-B
Tue 10:28:12 AM 49.9220 -55.8460 252° West 475 547 35,000  Level FlightAware ADS-B
Tue 10:28:47 AM 49.9010 -55.9460 252° West 474 545 35,000  Level FlightAware ADS-B
Tue 10:29:37 AM 49.8680 -56.1010 252° West 473 544 35,000  Level FlightAware ADS-B
Tue 10:30:22 AM 49.8410 -56.2310 252° West 472 543 35,000  Level FlightAware ADS-B
Tue 10:30:57 AM 49.8180 -56.3370 251° West 470 541 35,000  Level FlightAware ADS-B
Tue 10:31:37 AM 49.7940 -56.4470 251° West 472 543 35,000  Level FlightAware ADS-B
Tue 10:32:22 AM 49.7640 -56.5830 251° West 474 545 35,000  Level FlightAware ADS-B
Tue 10:33:07 AM 49.7390 -56.7100 253° West 474 545 35,000  Level FlightAware ADS-B
Tue 10:33:52 AM 49.7090 -56.8440 251° West 470 541 35,000  Level FlightAware ADS-B
Tue 10:34:32 AM 49.6880 -56.9530 253° West 470 541 35,000  Level FlightAware ADS-B
Tue 10:35:12 AM 49.6660 -57.0630 253° West 470 541 35,000  Level FlightAware ADS-B
Tue 10:35:52 AM 49.6440 -57.1720 253° West 470 541 35,000  Level FlightAware ADS-B
Tue 10:36:32 AM 49.6230 -57.2810 253° West 470 541 35,000  Level FlightAware ADS-B
Tue 10:37:07 AM 49.5790 -57.4160 243° Southwest 35,000  Level FlightAware ADS-B
Tue 10:37:17 AM 49.5730 -57.4440 252° West 478 550 35,000  Level FlightAware ADS-B
Tue 10:38:02 AM 49.5420 -57.5780 250° West 473 544 35,000  Level FlightAware ADS-B
Tue 10:38:37 AM 49.5210 -57.6770 252° West 473 544 35,000  Level FlightAware ADS-B
Tue 10:39:17 AM 49.4920 -57.7970 250° West 472 543 35,000  Level FlightAware ADS-B
Tue 10:40:02 AM 49.4650 -57.9220 252° West 472 543 35,000  Level FlightAware ADS-B
Tue 10:40:52 AM 49.4370 -58.0580 252° West 472 543 35,000  Level FlightAware ADS-B
Tue 10:41:32 AM 49.4140 -58.1660 252° West 472 543 35,000  Level FlightAware ADS-B
Tue 10:42:12 AM 49.3910 -58.2750 252° West 472 543 35,000  Level FlightAware ADS-B
Tue 10:42:52 AM 49.3680 -58.3830 252° West 472 543 35,000  Level FlightAware ADS-B
Tue 10:43:32 AM 49.3450 -58.4920 252° West 472 543 35,000  Level FlightAware ADS-B
Tue 10:44:22 AM 49.3160 -58.6270 252° West 472 543 35,000  Level FlightAware ADS-B
Tue 10:45:02 AM 49.2560 -58.7960 242° Southwest 35,000  Level FlightAware ADS-B
Tue 10:45:07 AM 49.2520 -58.8130 250° West 473 544 35,000  Level FlightAware ADS-B
Tue 10:46:07 AM 49.2090 -58.9890 250° West 474 545 35,000  Level FlightAware ADS-B
Tue 10:46:52 AM 49.1820 -59.1130 252° West 474 545 35,000  Level FlightAware ADS-B
Tue 10:47:37 AM 49.1450 -59.2540 248° West 474 545 35,000  Level FlightAware ADS-B
Tue 10:48:12 AM 49.1210 -59.3510 249° West 474 545 35,000  Level FlightAware ADS-B
Tue 10:48:57 AM 49.0900 -59.4740 249° West 473 544 35,000  Level FlightAware ADS-B
Tue 10:49:42 AM 49.0620 -59.5970 251° West 473 544 35,000  Level FlightAware ADS-B
Tue 10:50:22 AM 49.0380 -59.7050 251° West 473 544 35,000  Level FlightAware ADS-B
Tue 10:51:02 AM 49.0140 -59.8120 251° West 473 544 35,000  Level FlightAware ADS-B
Tue 10:51:42 AM 48.9900 -59.9190 251° West 473 544 35,000  Level FlightAware ADS-B
Tue 10:52:32 AM 48.9590 -60.0530 251° West 473 544 35,000  Level FlightAware ADS-B
Tue 10:53:12 AM 48.9350 -60.1600 251° West 473 544 35,000  Level FlightAware ADS-B
Tue 10:53:52 AM 48.9110 -60.2670 251° West 473 544 35,000  Level FlightAware ADS-B
Tue 10:54:32 AM 48.8870 -60.3740 251° West 473 544 35,000  Level FlightAware ADS-B
Tue 10:55:12 AM 48.8630 -60.4810 251° West 473 544 35,000  Level FlightAware ADS-B
Tue 10:56:02 AM 48.8320 -60.6150 251° West 473 544 35,000  Level FlightAware ADS-B
Tue 10:56:42 AM 48.8080 -60.7220 251° West 473 544 35,000  Level FlightAware ADS-B
Tue 10:57:22 AM 48.7840 -60.8280 251° West 473 544 35,000  Level FlightAware ADS-B
Tue 10:58:02 AM 48.7600 -60.9350 251° West 473 544 35,000  Level FlightAware ADS-B
Tue 10:58:42 AM 48.7350 -61.0420 251° West 473 544 35,000  Level FlightAware ADS-B
Tue 10:59:09 AM 48.6167 -61.2333 251° West 440 506 35,000  Level Moncton Center
Tue 11:00:09 AM 48.5667 -61.4167 248° West 440 506 35,000  Level Moncton Center
Tue 11:01:09 AM 48.5167 -61.5833 246° West 440 506 35,000  Level Moncton Center
Tue 11:02:08 AM 48.4833 -61.7333 252° West 440 506 35,000  Level Gander Center
Tue 11:03:08 AM 48.4333 -61.9333 249° West 440 506 35,000  Level Gander Center
Tue 11:04:08 AM 48.3833 -62.0833 243° Southwest 440 506 35,000  Level Gander Center
Tue 11:05:08 AM 48.3333 -62.2667 248° West 440 506 35,000  Level Gander Center
Tue 11:06:08 AM 48.3000 -62.4333 253° West 450 518 35,000  Level Gander Center
Tue 11:07:08 AM 48.2333 -62.6167 241° Southwest 440 506 35,000  Level Gander Center
Tue 11:08:08 AM 48.1833 -62.7833 246° West 450 518 35,000  Level Gander Center
Tue 11:09:09 AM 48.1500 -62.9500 253° West 440 506 35,000  Level Moncton Center
Tue 11:10:09 AM 48.1000 -63.1167 246° West 450 518 35,000  Level Moncton Center
Tue 11:11:09 AM 48.0500 -63.3000 248° West 450 518 35,000  Level Moncton Center
Tue 11:12:09 AM 48.0000 -63.4667 246° West 450 518 35,000  Level Moncton Center
Tue 11:13:09 AM 47.9500 -63.6167 244° Southwest 440 506 35,000  Level Moncton Center
Tue 11:14:09 AM 47.9000 -63.8000 248° West 440 506 35,000  Level Moncton Center
Tue 11:15:09 AM 47.8500 -63.9667 246° West 440 506 35,000  Level Moncton Center
Tue 11:16:09 AM 47.8000 -64.1167 244° Southwest 440 506 35,000  Level Moncton Center
Tue 11:17:09 AM 47.7333 -64.3000 242° Southwest 440 506 35,000  Level Moncton Center
Tue 11:18:09 AM 47.6833 -64.4667 246° West 450 518 35,000  Level Moncton Center
Tue 11:19:09 AM 47.6333 -64.6500 248° West 440 506 35,000  Level Moncton Center
Tue 11:20:09 AM 47.5833 -64.8167 246° West 450 518 35,000  Level Moncton Center
Tue 11:21:09 AM 47.5333 -65.0000 248° West 450 518 35,000  Level Moncton Center
Tue 11:22:09 AM 47.4833 -65.1333 241° Southwest 450 518 35,000  Level Moncton Center
Tue 11:23:09 AM 47.4333 -65.3167 248° West 450 518 35,000  Level Moncton Center
Tue 11:24:09 AM 47.3833 -65.4833 246° West 450 518 35,000  Level Moncton Center
Tue 11:25:09 AM 47.3333 -65.6333 244° Southwest 450 518 35,000  Level Moncton Center
Tue 11:26:09 AM 47.2667 -65.8000 240° Southwest 450 518 35,000  Level Moncton Center
Tue 11:27:09 AM 47.2167 -65.9500 244° Southwest 430 495 35,000  Level Moncton Center
Tue 11:28:09 AM 47.1500 -66.1500 244° Southwest 460 529 35,000  Level Moncton Center
Tue 11:29:09 AM 47.1000 -66.3167 246° West 450 518 35,000  Level Moncton Center
Tue 11:30:09 AM 47.0500 -66.4833 246° West 450 518 35,000  Level Moncton Center
Tue 11:31:09 AM 46.9833 -66.6500 240° Southwest 450 518 35,000  Level Moncton Center
Tue 11:37:07 AM 46.8000 -67.6630 240° Southwest 473 544 35,000  Level FlightAware ADS-B
Tue 11:37:52 AM 46.7850 -67.7940 261° West 474 545 35,000 -52 Level FlightAware ADS-B
Tue 11:39:02 AM 46.7570 -68.0080 259° West 475 547 34,900 -522 Descending FlightAware ADS-B
Tue 11:39:47 AM 46.7400 -68.1470 260° West 475 547 34,000 -635 Descending FlightAware ADS-B
Tue 11:40:27 AM 46.7240 -68.2650 259° West 478 550 34,000  Level FlightAware ADS-B
Tue 11:43:07 AM 46.6630 -68.7360 259° West 477 549 34,000  Level FlightAware ADS-B
Tue 11:43:57 AM 46.6420 -68.8950 259° West 34,000  Level FlightAware ADS-B
Tue 11:44:42 AM 46.6230 -69.0370 259° West 34,000  Level FlightAware ADS-B
Tue 11:45:22 AM 46.6060 -69.1560 258° West 34,000  Level FlightAware ADS-B
Tue 11:46:02 AM 46.5900 -69.2760 259° West 34,000  Level FlightAware ADS-B
Tue 11:46:47 AM 46.5710 -69.4110 258° West 34,000  Level FlightAware ADS-B
Tue 11:47:27 AM 46.5550 -69.5300 259° West 34,000  Level FlightAware ADS-B
Tue 11:48:12 AM 46.5360 -69.6640 258° West 34,000  Level FlightAware ADS-B
Tue 11:48:52 AM 46.5190 -69.7810 258° West 34,000  Level FlightAware ADS-B
Tue 11:49:32 AM 46.5010 -69.9060 258° West 34,000  Level FlightAware ADS-B
Tue 11:50:17 AM 46.4820 -70.0400 258° West 34,000  Level FlightAware ADS-B
Tue 11:50:57 AM 46.4640 -70.1610 258° West 34,000  Level FlightAware ADS-B
Tue 11:51:42 AM 46.4450 -70.2950 258° West 34,000  Level FlightAware ADS-B
Tue 11:52:22 AM 46.4270 -70.4150 258° West 34,000  Level FlightAware ADS-B
Tue 11:53:07 AM 46.4070 -70.5500 258° West 34,000  Level FlightAware ADS-B
Tue 11:53:47 AM 46.3890 -70.6690 258° West 34,000  Level FlightAware ADS-B
Tue 11:54:27 AM 46.3700 -70.7900 257° West 34,000  Level FlightAware ADS-B
Tue 11:55:12 AM 46.3500 -70.9250 258° West 34,000  Level FlightAware ADS-B
Tue 11:55:52 AM 46.3310 -71.0450 257° West 34,000  Level FlightAware ADS-B
Tue 11:56:32 AM 46.3130 -71.1630 258° West 34,000  Level FlightAware ADS-B
Tue 11:57:17 AM 46.2910 -71.3010 257° West 34,000  Level FlightAware ADS-B
Tue 11:57:57 AM 46.2730 -71.4200 258° West 34,000  Level FlightAware ADS-B
Tue 11:58:42 AM 46.2510 -71.5550 257° West 34,000  Level FlightAware ADS-B
Tue 11:59:22 AM 46.2320 -71.6750 257° West 34,000  Level FlightAware ADS-B
Tue 12:00:02 PM 46.2130 -71.7940 257° West 34,000  Level FlightAware ADS-B
Tue 12:00:47 PM 46.1910 -71.9290 257° West 34,000  Level FlightAware ADS-B
Tue 12:01:27 PM 46.1710 -72.0490 257° West 34,000  Level FlightAware ADS-B
Tue 12:02:07 PM 46.1520 -72.1690 257° West 34,000  Level FlightAware ADS-B
Tue 12:02:52 PM 46.1300 -72.3020 257° West 34,000  Level FlightAware ADS-B
Tue 12:03:37 PM 46.1070 -72.4400 257° West 34,000  Level FlightAware ADS-B
Tue 12:04:17 PM 46.0870 -72.5590 256° West 34,000  Level FlightAware ADS-B
Tue 12:04:57 PM 46.0670 -72.6770 256° West 34,000  Level FlightAware ADS-B
Tue 12:05:42 PM 46.0440 -72.8140 256° West 34,000  Level FlightAware ADS-B
Tue 12:06:22 PM 46.0230 -72.9330 256° West 34,000  Level FlightAware ADS-B
Tue 12:07:07 PM 46.0000 -73.0660 256° West 34,000  Level FlightAware ADS-B
Tue 12:07:47 PM 45.9790 -73.1850 256° West 34,000  Level FlightAware ADS-B
Tue 12:08:27 PM 45.9580 -73.3060 256° West 34,000  Level FlightAware ADS-B
Tue 12:09:12 PM 45.9340 -73.4410 256° West 34,000  Level FlightAware ADS-B
Tue 12:09:52 PM 45.9130 -73.5590 256° West 34,000  Level FlightAware ADS-B
Tue 12:10:32 PM 45.8920 -73.6800 256° West 34,000  Level FlightAware ADS-B
Tue 12:11:17 PM 45.8680 -73.8110 255° West 34,000  Level FlightAware ADS-B
Tue 12:11:57 PM 45.8460 -73.9310 255° West 34,000  Level FlightAware ADS-B
Tue 12:12:42 PM 45.8230 -74.0610 256° West 34,000  Level FlightAware ADS-B
Tue 12:13:22 PM 45.8010 -74.1790 255° West 34,000  Level FlightAware ADS-B
Tue 12:14:07 PM 45.7760 -74.3150 255° West 34,000  Level FlightAware ADS-B
Tue 12:14:47 PM 45.7530 -74.4350 255° West 34,000  Level FlightAware ADS-B
Tue 12:15:27 PM 45.7310 -74.5510 255° West 34,000  Level FlightAware ADS-B
Tue 12:16:12 PM 45.7070 -74.6800 255° West 34,000  Level FlightAware ADS-B
Tue 12:16:52 PM 45.6850 -74.7980 255° West 34,000  Level FlightAware ADS-B
Tue 12:17:32 PM 45.6620 -74.9190 255° West 34,000  Level FlightAware ADS-B
Tue 12:18:17 PM 45.6350 -75.0560 254° West 34,000  Level FlightAware ADS-B
Tue 12:18:57 PM 45.6120 -75.1730 254° West 34,000  Level FlightAware ADS-B
Tue 12:22:27 PM 45.4910 -75.7860 254° West 34,000  Level FlightAware ADS-B
Tue 12:23:12 PM 45.4650 -75.9140 254° West 34,000  Level FlightAware ADS-B
Tue 12:25:57 PM 45.3670 -76.3770 253° West 478 550 34,000  Level FlightAware ADS-B
Tue 12:26:42 PM 45.3380 -76.5000 251° West 477 549 34,000  Level FlightAware ADS-B
Tue 12:27:22 PM 45.3120 -76.6080 251° West 476 548 34,000  Level FlightAware ADS-B
Tue 12:28:02 PM 45.2840 -76.7270 252° West 475 547 34,000  Level FlightAware ADS-B
Tue 12:28:47 PM 45.2540 -76.8560 252° West 474 545 34,000  Level FlightAware ADS-B
Tue 12:29:27 PM 45.2270 -76.9680 251° West 473 544 34,000  Level FlightAware ADS-B
Tue 12:30:12 PM 45.1970 -77.0930 251° West 474 545 34,000  Level FlightAware ADS-B
Tue 12:30:52 PM 45.1690 -77.2090 251° West 474 545 34,000  Level FlightAware ADS-B
Tue 12:31:32 PM 45.1420 -77.3210 251° West 476 548 34,000  Level FlightAware ADS-B
Tue 12:32:17 PM 45.1110 -77.4500 251° West 475 547 34,000  Level FlightAware ADS-B
Tue 12:32:57 PM 45.0830 -77.5630 251° West 475 547 34,000  Level FlightAware ADS-B
Tue 12:33:42 PM 45.0520 -77.6880 251° West 475 547 34,000  Level FlightAware ADS-B
Tue 12:34:22 PM 45.0240 -77.8020 251° West 474 545 34,000  Level FlightAware ADS-B
Tue 12:35:02 PM 44.9950 -77.9160 250° West 476 548 34,000  Level FlightAware ADS-B
Tue 12:35:47 PM 44.9640 -78.0410 251° West 475 547 34,000  Level FlightAware ADS-B
Tue 12:36:22 PM 44.9390 -78.1420 251° West 474 545 34,000  Level FlightAware ADS-B
Tue 12:37:07 PM 44.9060 -78.2710 250° West 475 547 34,000  Level FlightAware ADS-B
Tue 12:37:52 PM 44.8730 -78.4020 250° West 475 547 34,000  Level FlightAware ADS-B
Tue 12:38:32 PM 44.8440 -78.5150 250° West 476 548 34,000  Level FlightAware ADS-B
Tue 12:39:17 PM 44.8120 -78.6370 250° West 477 549 34,000  Level FlightAware ADS-B
Tue 12:39:57 PM 44.7800 -78.7590 250° West 478 550 34,000  Level FlightAware ADS-B
Tue 12:40:42 PM 44.7380 -78.8820 244° Southwest 477 549 34,000  Level FlightAware ADS-B
Tue 12:41:22 PM 44.6970 -78.9940 243° Southwest 478 550 34,000  Level FlightAware ADS-B
Tue 12:42:02 PM 44.6570 -79.1020 243° Southwest 479 551 34,000  Level FlightAware ADS-B
Tue 12:42:42 PM 44.6210 -79.2000 243° Southwest 478 550 34,000  Level FlightAware ADS-B
Tue 12:43:27 PM 44.5710 -79.3360 243° Southwest 480 552 34,000  Level FlightAware ADS-B
Tue 12:44:07 PM 44.5310 -79.4450 243° Southwest 481 554 34,000  Level FlightAware ADS-B
Tue 12:44:52 PM 44.4840 -79.5710 242° Southwest 482 555 34,000  Level FlightAware ADS-B
Tue 12:45:32 PM 44.4420 -79.6820 242° Southwest 484 557 34,000  Level FlightAware ADS-B
Tue 12:46:12 PM 44.4000 -79.7940 242° Southwest 485 558 34,000  Level FlightAware ADS-B
Tue 12:46:57 PM 44.3560 -79.9120 242° Southwest 484 557 34,000  Level FlightAware ADS-B
Tue 12:47:37 PM 44.3120 -80.0260 242° Southwest 482 555 34,000  Level FlightAware ADS-B
Tue 12:48:22 PM 44.2650 -80.1500 242° Southwest 480 552 34,000  Level FlightAware ADS-B
Tue 12:49:02 PM 44.2250 -80.2550 242° Southwest 479 551 34,000  Level FlightAware ADS-B
Tue 12:49:42 PM 44.1820 -80.3670 242° Southwest 477 549 34,000  Level FlightAware ADS-B
Tue 12:50:27 PM 44.1350 -80.4890 242° Southwest 475 547 34,000  Level FlightAware ADS-B
Tue 12:51:07 PM 44.0950 -80.5940 242° Southwest 476 548 34,000  Level FlightAware ADS-B
Tue 12:51:52 PM 44.0470 -80.7170 242° Southwest 475 547 34,000  Level FlightAware ADS-B
Tue 12:52:32 PM 44.0060 -80.8230 242° Southwest 475 547 34,000  Level FlightAware ADS-B
Tue 12:53:12 PM 43.9650 -80.9280 242° Southwest 475 547 34,000  Level FlightAware ADS-B
Tue 12:53:57 PM 43.9150 -81.0540 241° Southwest 475 547 34,000  Level FlightAware ADS-B
Tue 12:54:42 PM 43.8670 -81.1760 241° Southwest 476 548 34,000  Level FlightAware ADS-B
Tue 12:55:22 PM 43.8240 -81.2840 241° Southwest 475 547 34,000  Level FlightAware ADS-B
Tue 12:56:07 PM 43.7790 -81.3980 241° Southwest 475 547 34,000  Level FlightAware ADS-B
Tue 12:56:47 PM 43.7350 -81.5080 241° Southwest 474 545 34,000  Level FlightAware ADS-B
Tue 12:57:27 PM 43.6900 -81.6200 241° Southwest 472 543 34,000  Level FlightAware ADS-B
Tue 12:58:12 PM 43.6440 -81.7350 241° Southwest 463 533 34,000  Level FlightAware ADS-B
Tue 12:58:52 PM 43.6000 -81.8440 241° Southwest 459 528 34,000  Level FlightAware ADS-B
Tue 12:59:37 PM 43.5570 -81.9510 241° Southwest 460 529 34,000 -610 Level FlightAware ADS-B
Tue 01:00:17 PM 43.5120 -82.0610 241° Southwest 34,000 -619 Level FlightAware ADS-B
Tue 01:00:57 PM 43.4730 -82.1570 241° Southwest 34,000 -626 Level FlightAware ADS-B
Tue 01:01:37 PM 43.4280 -82.2670 241° Southwest 34,000 -634 Level FlightAware ADS-B
Tue 01:02:17 PM 43.3830 -82.3750 240° Southwest 34,000 -642 Level FlightAware ADS-B
Tue 01:02:57 PM 43.3420 -82.4740 240° Southwest 34,000 -651 Level FlightAware ADS-B
Tue 01:03:42 PM 43.2920 -82.5950 240° Southwest 34,000 -659 Level FlightAware ADS-B
Tue 01:04:32 PM 43.2440 -82.7220 243° Southwest 34,000 -669 Level FlightAware ADS-B
Tue 01:05:12 PM 43.2140 -82.8300 249° West 33,100 -681 Descending FlightAware ADS-B
Tue 01:05:52 PM 43.1820 -82.9450 249° West 32,100 -672 Descending FlightAware ADS-B
Tue 01:06:32 PM 43.1530 -83.0610 251° West 32,000 -660 Descending FlightAware ADS-B
Tue 01:07:07 PM 43.1370 -83.1430 255° West 32,000 -667 Level FlightAware ADS-B
Tue 01:07:52 PM 43.1150 -83.2780 257° West 32,000 -676 Level FlightAware ADS-B
Tue 01:08:32 PM 43.0980 -83.3860 258° West 32,000 -687 Level FlightAware ADS-B
Tue 01:09:22 PM 43.0740 -83.5330 257° West 32,000 -697 Level FlightAware ADS-B
Tue 01:09:57 PM 43.0570 -83.6400 258° West 32,000 -710 Level FlightAware ADS-B
Tue 01:10:37 PM 43.0390 -83.7500 257° West 32,000 -720 Level FlightAware ADS-B
Tue 01:11:27 PM 43.0130 -83.9080 257° West 32,000 -731 Level FlightAware ADS-B
Tue 01:12:12 PM 42.9910 -84.0430 257° West 32,000 -745 Level FlightAware ADS-B
Tue 01:12:52 PM 42.9720 -84.1570 257° West 32,000 -759 Level FlightAware ADS-B
Tue 01:13:37 PM 42.9510 -84.2840 257° West 32,000 -771 Level FlightAware ADS-B
Tue 01:14:17 PM 42.9310 -84.4010 257° West 32,000 -786 Level FlightAware ADS-B
Tue 01:14:57 PM 42.9120 -84.5130 257° West 32,000 -799 Level FlightAware ADS-B
Tue 01:15:37 PM 42.8920 -84.6300 257° West 32,000 -813 Level FlightAware ADS-B
Tue 01:16:22 PM 42.8690 -84.7620 257° West 32,000 -827 Level FlightAware ADS-B
Tue 01:17:02 PM 42.8500 -84.8770 257° West 32,000 -844 Level FlightAware ADS-B
Tue 01:17:47 PM 42.8340 -85.0060 260° West 32,000 -859 Level FlightAware ADS-B
Tue 01:18:32 PM 42.8200 -85.1390 262° West 31,700 -878 Descending FlightAware ADS-B
Tue 01:19:12 PM 42.8080 -85.2510 262° West 30,100 -888 Descending FlightAware ADS-B
Tue 01:19:52 PM 42.7950 -85.3720 262° West 28,700 -858 Descending FlightAware ADS-B
Tue 01:20:37 PM 42.7780 -85.5000 260° West 27,100 -834 Descending FlightAware ADS-B
Tue 01:21:17 PM 42.7590 -85.6100 257° West 25,500 -804 Descending FlightAware ADS-B
Tue 01:21:57 PM 42.7400 -85.7180 257° West 23,900 -771 Descending FlightAware ADS-B
Tue 01:22:42 PM 42.7180 -85.8330 255° West 22,200 -737 Descending FlightAware ADS-B
Tue 01:23:22 PM 42.7000 -85.9370 257° West 20,700 -699 Descending FlightAware ADS-B
Tue 01:24:07 PM 42.6790 -86.0520 256° West 20,000 -665 Descending FlightAware ADS-B
Tue 01:24:47 PM 42.6600 -86.1520 256° West 20,000 -658 Level FlightAware ADS-B
Tue 01:25:27 PM 42.6420 -86.2520 256° West 20,000 -673 Level FlightAware ADS-B
Tue 01:26:07 PM 42.6240 -86.3500 256° West 20,000 -689 Level FlightAware ADS-B
Tue 01:26:52 PM 42.6030 -86.4590 255° West 18,400 -706 Descending FlightAware ADS-B
Tue 01:27:37 PM 42.5830 -86.5680 256° West 16,900 -666 Descending FlightAware ADS-B
Tue 01:28:12 PM 42.5670 -86.6530 256° West 15,700 -627 Descending FlightAware ADS-B
Tue 01:29:02 PM 42.5430 -86.7560 252° West 14,200 -594 Descending FlightAware ADS-B
Tue 01:29:42 PM 42.5180 -86.8490 250° West 12,800 -553 Descending FlightAware ADS-B
Tue 01:30:22 PM 42.4940 -86.9360 250° West 11,400 -509 Descending FlightAware ADS-B
Tue 01:31:02 PM 42.4710 -87.0200 250° West 10,300 -464 Descending FlightAware ADS-B
Tue 01:31:27 PM 42.4570 -87.0720 250° West 9,900 -428 Descending FlightAware ADS-B
Tue 01:31:47 PM 42.4460 -87.1120 250° West 9,900 -418 Level FlightAware ADS-B
Tue 01:32:17 PM 42.4280 -87.1770 249° West 9,900 -425 Level FlightAware ADS-B
Tue 01:32:42 PM 42.4140 -87.2280 250° West 9,900 -435 Level FlightAware ADS-B
Tue 01:32:52 PM 42.4090 -87.2480 251° West 9,900 -443 Level FlightAware ADS-B
Tue 01:33:27 PM 42.3890 -87.3210 250° West 9,900 -447 Level FlightAware ADS-B
Tue 01:33:42 PM 42.3810 -87.3480 248° West 9,900 -460 Level FlightAware ADS-B
Tue 01:34:07 PM 42.3650 -87.4030 249° West 9,900 -466 Level FlightAware ADS-B
Tue 01:34:22 PM 42.3530 -87.4260 235° Southwest 9,900 -476 Level FlightAware ADS-B
Tue 01:34:52 PM 42.3120 -87.4710 219° Southwest 9,900 -482 Level FlightAware ADS-B
Tue 01:35:17 PM 42.2780 -87.5040 216° Southwest 9,900 -495 Level FlightAware ADS-B
Tue 01:35:32 PM 42.2570 -87.5260 218° Southwest 9,900 -506 Level FlightAware ADS-B
Tue 01:36:02 PM 42.2190 -87.5630 216° Southwest 9,900 -513 Level FlightAware ADS-B
Tue 01:36:22 PM 42.1940 -87.5880 217° Southwest 9,900 -528 Level FlightAware ADS-B
Tue 01:36:57 PM 42.1520 -87.6300 217° Southwest 9,800 -539 Descending FlightAware ADS-B
Tue 01:37:22 PM 42.1220 -87.6600 217° Southwest 9,300 -552 Descending FlightAware ADS-B
Tue 01:37:52 PM 42.0890 -87.6920 216° Southwest 8,700 -535 Descending FlightAware ADS-B
Tue 01:38:07 PM 42.0720 -87.7090 217° Southwest 8,300 -513 Descending FlightAware ADS-B
Tue 01:38:32 PM 42.0440 -87.7370 217° Southwest 7,900 -496 Descending FlightAware ADS-B
Tue 01:39:02 PM 42.0150 -87.7740 223° Southwest 7,900 -483 Level FlightAware ADS-B
Tue 01:39:27 PM 41.9930 -87.8050 226° Southwest 7,900 -499 Level FlightAware ADS-B
Tue 01:39:57 PM 41.9660 -87.8420 226° Southwest 7,900 -514 Level FlightAware ADS-B
Tue 01:40:27 PM 41.9410 -87.8780 227° Southwest 7,900 -533 Level FlightAware ADS-B
Tue 01:40:52 PM 41.9220 -87.9040 226° Southwest 7,900 -554 Level FlightAware ADS-B
Tue 01:41:22 PM 41.8980 -87.9370 226° Southwest 7,900 -572 Level FlightAware ADS-B
Tue 01:41:52 PM 41.8830 -87.9740 241° Southwest 7,900 -596 Level FlightAware ADS-B
Tue 01:42:02 PM 41.8830 -87.9880 270° West 7,800 -622 Descending FlightAware ADS-B
Tue 01:42:32 PM 41.8860 -88.0250 276° West 7,900 -622 Climbing FlightAware ADS-B
Tue 01:42:57 PM 41.8910 -88.0530 283° West 7,500 -660 Descending FlightAware ADS-B
Tue 01:43:27 PM 41.8990 -88.0890 287° West 6,900 -648 Descending FlightAware ADS-B
Tue 01:43:42 PM 41.9030 -88.1040 290° West 6,600 -620 Descending FlightAware ADS-B
Tue 01:44:02 PM 41.9060 -88.1300 279° West 6,200 -605 Descending FlightAware ADS-B
Tue 01:44:37 PM 41.9050 -88.1700 268° West 5,600 -584 Descending FlightAware ADS-B
Tue 01:45:17 PM 41.9030 -88.2180 267° West 4,900 -555 Descending FlightAware ADS-B
Tue 01:45:37 PM 41.9020 -88.2370 266° West 4,900 -514 Level FlightAware ADS-B
Tue 01:46:17 PM 41.9100 -88.2850 283° West 5,000 -536 Climbing FlightAware ADS-B
Tue 01:46:32 PM 41.9220 -88.2890 346° North 4,900 -600 Descending FlightAware ADS-B
Tue 01:46:42 PM 41.9310 -88.2890 360° North 4,900 -607 Level FlightAware ADS-B
Tue 01:47:07 PM 41.9510 -88.2900 358° North 4,900 -622 Level FlightAware ADS-B
Tue 01:47:37 PM 41.9670 -88.2690 44° Northeast 4,900 -663 Level FlightAware ADS-B
Tue 01:48:07 PM 41.9650 -88.2330 94° East 4,900 -720 Level FlightAware ADS-B
Tue 01:49:02 PM 41.9660 -88.1730 89° East 4,600 -788 Descending FlightAware ADS-B
Tue 01:49:32 PM 41.9660 -88.1430 90° East 4,000 -883 Descending FlightAware ADS-B
Tue 01:49:57 PM 41.9660 -88.1170 90° East 3,600 -843 Descending FlightAware ADS-B
Tue 01:50:27 PM 41.9670 -88.0840 88° East 3,100 -829 Descending FlightAware ADS-B
Tue 01:50:52 PM 41.9670 -88.0570 90° East 2,700 -800 Descending FlightAware ADS-B
Tue 01:51:07 PM 41.9670 -88.0430 90° East 2,500 -774 Descending FlightAware ADS-B
Tue 01:51:37 PM 41.9670 -88.0140 90° East 2,100 -771 Descending FlightAware ADS-B
Tue 01:52:02 PM 41.9670 -87.9930 90° East 1,800 -764 Descending FlightAware ADS-B
Tue 01:52:32 PM 41.9670 -87.9640 90° East 1,400 -776 Descending FlightAware ADS-B
Tue 01:52:47 PM 41.9670 -87.9520 90° East 1,200 -764 Descending FlightAware ADS-B
Tue 01:53:12 PM 41.9670 -87.9300 90° East 900 -750 Descending FlightAware ADS-B
Tue 01:53:27 PM 41.9670 -87.9170 90° East 700 -800 Descending FlightAware ADS-B

Login

Don't have an account? Register now (free) for customized features, flight alerts, and more!